sensor_id;sensor_type;location;lat;lon;timestamp;temperature;humidity
3275;DHT22;1649;53.672;10.064;2022-08-19T00:00:42;19.70;99.90
3275;DHT22;1649;53.672;10.064;2022-08-19T00:03:07;19.80;99.90
3275;DHT22;1649;53.672;10.064;2022-08-19T00:05:33;19.80;99.90
3275;DHT22;1649;53.672;10.064;2022-08-19T00:07:59;19.90;99.90
3275;DHT22;1649;53.672;10.064;2022-08-19T00:10:24;19.90;99.90
3275;DHT22;1649;53.672;10.064;2022-08-19T00:12:50;19.90;99.90
3275;DHT22;1649;53.672;10.064;2022-08-19T00:15:18;19.90;99.90
3275;DHT22;1649;53.672;10.064;2022-08-19T00:17:45;19.90;99.90
3275;DHT22;1649;53.672;10.064;2022-08-19T00:20:17;19.80;99.90
3275;DHT22;1649;53.672;10.064;2022-08-19T00:22:43;19.80;99.90
3275;DHT22;1649;53.672;10.064;2022-08-19T00:25:09;19.80;99.90
3275;DHT22;1649;53.672;10.064;2022-08-19T00:27:35;19.80;99.90
3275;DHT22;1649;53.672;10.064;2022-08-19T00:30:00;19.80;99.90
3275;DHT22;1649;53.672;10.064;2022-08-19T00:32:28;19.70;99.90
3275;DHT22;1649;53.672;10.064;2022-08-19T00:34:54;19.70;99.90
3275;DHT22;1649;53.672;10.064;2022-08-19T00:37:22;19.70;99.90
3275;DHT22;1649;53.672;10.064;2022-08-19T00:39:48;19.70;99.90
3275;DHT22;1649;53.672;10.064;2022-08-19T00:42:14;19.70;99.90
3275;DHT22;1649;53.672;10.064;2022-08-19T00:44:40;19.70;99.90
3275;DHT22;1649;53.672;10.064;2022-08-19T00:47:06;19.70;99.90
3275;DHT22;1649;53.672;10.064;2022-08-19T00:49:36;19.60;99.90
3275;DHT22;1649;53.672;10.064;2022-08-19T00:52:08;19.70;99.90
3275;DHT22;1649;53.672;10.064;2022-08-19T00:54:36;19.70;99.90
3275;DHT22;1649;53.672;10.064;2022-08-19T00:57:06;19.60;99.90
3275;DHT22;1649;53.672;10.064;2022-08-19T00:59:35;19.70;99.90
3275;DHT22;1649;53.672;10.064;2022-08-19T01:02:01;19.60;99.90
3275;DHT22;1649;53.672;10.064;2022-08-19T01:04:27;19.70;99.90
3275;DHT22;1649;53.672;10.064;2022-08-19T01:06:52;19.70;99.90
3275;DHT22;1649;53.672;10.064;2022-08-19T01:09:18;19.70;99.90
3275;DHT22;1649;53.672;10.064;2022-08-19T01:11:44;19.70;99.90
3275;DHT22;1649;53.672;10.064;2022-08-19T01:14:10;19.70;99.90
3275;DHT22;1649;53.672;10.064;2022-08-19T01:16:39;19.70;99.90
3275;DHT22;1649;53.672;10.064;2022-08-19T01:19:13;19.60;99.90
3275;DHT22;1649;53.672;10.064;2022-08-19T01:21:45;19.60;99.90
3275;DHT22;1649;53.672;10.064;2022-08-19T01:24:14;19.50;99.90
3275;DHT22;1649;53.672;10.064;2022-08-19T01:26:42;19.60;99.90
3275;DHT22;1649;53.672;10.064;2022-08-19T01:29:08;19.60;99.90
3275;DHT22;1649;53.672;10.064;2022-08-19T01:31:34;19.60;99.90
3275;DHT22;1649;53.672;10.064;2022-08-19T01:34:01;19.70;99.90
3275;DHT22;1649;53.672;10.064;2022-08-19T01:36:31;19.60;99.90
3275;DHT22;1649;53.672;10.064;2022-08-19T01:38:58;19.60;99.90
3275;DHT22;1649;53.672;10.064;2022-08-19T01:41:24;19.50;99.90
3275;DHT22;1649;53.672;10.064;2022-08-19T01:43:51;19.50;99.90
3275;DHT22;1649;53.672;10.064;2022-08-19T01:46:17;19.50;99.90
3275;DHT22;1649;53.672;10.064;2022-08-19T01:48:46;19.50;99.90
3275;DHT22;1649;53.672;10.064;2022-08-19T01:51:12;19.50;99.90
3275;DHT22;1649;53.672;10.064;2022-08-19T01:53:39;19.40;99.90
3275;DHT22;1649;53.672;10.064;2022-08-19T01:56:05;19.30;99.90
3275;DHT22;1649;53.672;10.064;2022-08-19T01:58:47;19.40;99.90
3275;DHT22;1649;53.672;10.064;2022-08-19T02:01:14;19.40;99.90
3275;DHT22;1649;53.672;10.064;2022-08-19T02:03:40;19.40;99.90
3275;DHT22;1649;53.672;10.064;2022-08-19T02:06:06;19.40;99.90
3275;DHT22;1649;53.672;10.064;2022-08-19T02:08:33;19.40;99.90
3275;DHT22;1649;53.672;10.064;2022-08-19T02:11:00;19.50;99.90
3275;DHT22;1649;53.672;10.064;2022-08-19T02:13:26;19.50;99.90
3275;DHT22;1649;53.672;10.064;2022-08-19T02:15:51;19.50;99.90
3275;DHT22;1649;53.672;10.064;2022-08-19T02:18:17;19.50;99.90
3275;DHT22;1649;53.672;10.064;2022-08-19T02:20:43;19.50;99.90
3275;DHT22;1649;53.672;10.064;2022-08-19T02:23:11;19.40;99.90
3275;DHT22;1649;53.672;10.064;2022-08-19T02:25:37;19.40;99.90
3275;DHT22;1649;53.672;10.064;2022-08-19T02:28:03;19.40;99.90
3275;DHT22;1649;53.672;10.064;2022-08-19T02:30:28;19.40;99.90
3275;DHT22;1649;53.672;10.064;2022-08-19T02:32:54;19.50;99.90
3275;DHT22;1649;53.672;10.064;2022-08-19T02:35:20;19.40;99.90
3275;DHT22;1649;53.672;10.064;2022-08-19T02:37:45;19.40;99.90
3275;DHT22;1649;53.672;10.064;2022-08-19T02:40:30;19.30;99.90
3275;DHT22;1649;53.672;10.064;2022-08-19T02:43:00;19.20;99.90
3275;DHT22;1649;53.672;10.064;2022-08-19T02:45:26;19.20;99.90
3275;DHT22;1649;53.672;10.064;2022-08-19T02:47:52;19.20;99.90
3275;DHT22;1649;53.672;10.064;2022-08-19T02:50:18;19.20;99.90
3275;DHT22;1649;53.672;10.064;2022-08-19T02:52:43;19.20;99.90
3275;DHT22;1649;53.672;10.064;2022-08-19T02:55:10;19.20;99.90
3275;DHT22;1649;53.672;10.064;2022-08-19T02:57:35;19.20;99.90
3275;DHT22;1649;53.672;10.064;2022-08-19T03:00:04;19.20;99.90
3275;DHT22;1649;53.672;10.064;2022-08-19T03:02:30;19.20;99.90
3275;DHT22;1649;53.672;10.064;2022-08-19T03:04:56;19.30;99.90
3275;DHT22;1649;53.672;10.064;2022-08-19T03:07:21;19.30;99.90
3275;DHT22;1649;53.672;10.064;2022-08-19T03:09:47;19.30;99.90
3275;DHT22;1649;53.672;10.064;2022-08-19T03:12:13;19.30;99.90
3275;DHT22;1649;53.672;10.064;2022-08-19T03:14:38;19.30;99.90
3275;DHT22;1649;53.672;10.064;2022-08-19T03:17:04;19.30;99.90
3275;DHT22;1649;53.672;10.064;2022-08-19T03:19:30;19.20;99.90
3275;DHT22;1649;53.672;10.064;2022-08-19T03:21:57;19.20;99.90
3275;DHT22;1649;53.672;10.064;2022-08-19T03:24:23;19.20;99.90
3275;DHT22;1649;53.672;10.064;2022-08-19T03:26:52;19.20;99.90
3275;DHT22;1649;53.672;10.064;2022-08-19T03:29:19;19.20;99.90
3275;DHT22;1649;53.672;10.064;2022-08-19T03:31:45;19.30;99.90
3275;DHT22;1649;53.672;10.064;2022-08-19T03:34:13;19.20;99.90
3275;DHT22;1649;53.672;10.064;2022-08-19T03:36:39;19.30;99.90
3275;DHT22;1649;53.672;10.064;2022-08-19T03:39:05;19.40;99.90
3275;DHT22;1649;53.672;10.064;2022-08-19T03:41:33;19.30;99.90
3275;DHT22;1649;53.672;10.064;2022-08-19T03:44:01;19.30;99.90
3275;DHT22;1649;53.672;10.064;2022-08-19T03:46:29;19.30;99.90
3275;DHT22;1649;53.672;10.064;2022-08-19T03:48:57;19.30;99.90
3275;DHT22;1649;53.672;10.064;2022-08-19T03:51:31;19.30;99.90
3275;DHT22;1649;53.672;10.064;2022-08-19T03:53:59;19.30;99.90
3275;DHT22;1649;53.672;10.064;2022-08-19T03:56:25;19.30;99.90
3275;DHT22;1649;53.672;10.064;2022-08-19T03:58:51;19.20;99.90
3275;DHT22;1649;53.672;10.064;2022-08-19T04:01:20;19.20;99.90
3275;DHT22;1649;53.672;10.064;2022-08-19T04:03:47;19.10;99.90
3275;DHT22;1649;53.672;10.064;2022-08-19T04:06:15;19.10;99.90
3275;DHT22;1649;53.672;10.064;2022-08-19T04:08:42;19.20;99.90
3275;DHT22;1649;53.672;10.064;2022-08-19T04:11:10;19.20;99.90
3275;DHT22;1649;53.672;10.064;2022-08-19T04:13:36;19.20;99.90
3275;DHT22;1649;53.672;10.064;2022-08-19T04:16:02;19.20;99.90
3275;DHT22;1649;53.672;10.064;2022-08-19T04:18:28;19.30;99.90
3275;DHT22;1649;53.672;10.064;2022-08-19T04:20:55;19.30;99.90
3275;DHT22;1649;53.672;10.064;2022-08-19T04:23:22;19.20;99.90
3275;DHT22;1649;53.672;10.064;2022-08-19T04:25:48;19.30;99.90
3275;DHT22;1649;53.672;10.064;2022-08-19T04:28:14;19.30;99.90
3275;DHT22;1649;53.672;10.064;2022-08-19T04:30:41;19.20;99.90
3275;DHT22;1649;53.672;10.064;2022-08-19T04:33:07;19.10;99.90
3275;DHT22;1649;53.672;10.064;2022-08-19T04:35:39;19.20;99.90
3275;DHT22;1649;53.672;10.064;2022-08-19T04:38:05;19.10;99.90
3275;DHT22;1649;53.672;10.064;2022-08-19T04:40:31;19.10;99.90
3275;DHT22;1649;53.672;10.064;2022-08-19T04:43:15;19.10;99.90
3275;DHT22;1649;53.672;10.064;2022-08-19T04:45:43;19.20;99.90
3275;DHT22;1649;53.672;10.064;2022-08-19T04:48:08;19.20;99.90
3275;DHT22;1649;53.672;10.064;2022-08-19T04:50:35;19.20;99.90
3275;DHT22;1649;53.672;10.064;2022-08-19T04:53:01;19.20;99.90
3275;DHT22;1649;53.672;10.064;2022-08-19T04:55:26;19.20;99.90
3275;DHT22;1649;53.672;10.064;2022-08-19T04:57:52;19.30;99.90
3275;DHT22;1649;53.672;10.064;2022-08-19T05:00:18;19.30;99.90
3275;DHT22;1649;53.672;10.064;2022-08-19T05:02:43;19.40;99.90
3275;DHT22;1649;53.672;10.064;2022-08-19T05:05:09;19.30;99.90
3275;DHT22;1649;53.672;10.064;2022-08-19T05:07:35;19.30;99.90
3275;DHT22;1649;53.672;10.064;2022-08-19T05:10:00;19.20;99.90
3275;DHT22;1649;53.672;10.064;2022-08-19T05:12:26;19.20;99.90
3275;DHT22;1649;53.672;10.064;2022-08-19T05:14:53;19.10;99.90
3275;DHT22;1649;53.672;10.064;2022-08-19T05:17:19;19.10;99.90
3275;DHT22;1649;53.672;10.064;2022-08-19T05:19:45;19.10;99.90
3275;DHT22;1649;53.672;10.064;2022-08-19T05:22:28;19.10;99.90
3275;DHT22;1649;53.672;10.064;2022-08-19T05:24:57;19.20;99.90
3275;DHT22;1649;53.672;10.064;2022-08-19T05:27:23;19.20;99.90
3275;DHT22;1649;53.672;10.064;2022-08-19T05:29:48;19.20;99.90
3275;DHT22;1649;53.672;10.064;2022-08-19T05:32:14;19.20;99.90
3275;DHT22;1649;53.672;10.064;2022-08-19T05:34:39;19.20;99.90
3275;DHT22;1649;53.672;10.064;2022-08-19T05:37:05;19.20;99.90
3275;DHT22;1649;53.672;10.064;2022-08-19T05:39:34;19.20;99.90
3275;DHT22;1649;53.672;10.064;2022-08-19T05:42:04;19.20;99.90
3275;DHT22;1649;53.672;10.064;2022-08-19T05:44:33;19.10;99.90
3275;DHT22;1649;53.672;10.064;2022-08-19T05:47:00;19.10;99.90
3275;DHT22;1649;53.672;10.064;2022-08-19T05:49:27;19.10;99.90
3275;DHT22;1649;53.672;10.064;2022-08-19T05:51:53;19.10;99.90
3275;DHT22;1649;53.672;10.064;2022-08-19T05:54:21;19.10;99.90
3275;DHT22;1649;53.672;10.064;2022-08-19T05:56:49;19.20;99.90
3275;DHT22;1649;53.672;10.064;2022-08-19T05:59:16;19.20;99.90
3275;DHT22;1649;53.672;10.064;2022-08-19T06:01:43;19.20;99.90
3275;DHT22;1649;53.672;10.064;2022-08-19T06:04:09;19.20;99.90
3275;DHT22;1649;53.672;10.064;2022-08-19T06:06:35;19.20;99.90
3275;DHT22;1649;53.672;10.064;2022-08-19T06:09:03;19.20;99.90
3275;DHT22;1649;53.672;10.064;2022-08-19T06:11:46;19.20;99.90
3275;DHT22;1649;53.672;10.064;2022-08-19T06:14:16;19.10;99.90
3275;DHT22;1649;53.672;10.064;2022-08-19T06:16:43;19.20;99.90
3275;DHT22;1649;53.672;10.064;2022-08-19T06:19:13;19.20;99.90
3275;DHT22;1649;53.672;10.064;2022-08-19T06:21:41;19.20;99.90
3275;DHT22;1649;53.672;10.064;2022-08-19T06:24:08;19.20;99.90
3275;DHT22;1649;53.672;10.064;2022-08-19T06:26:35;19.10;99.90
3275;DHT22;1649;53.672;10.064;2022-08-19T06:29:03;19.20;99.90
3275;DHT22;1649;53.672;10.064;2022-08-19T06:31:30;19.10;99.90
3275;DHT22;1649;53.672;10.064;2022-08-19T06:33:59;19.20;99.90
3275;DHT22;1649;53.672;10.064;2022-08-19T06:36:32;19.20;99.90
3275;DHT22;1649;53.672;10.064;2022-08-19T06:39:00;19.20;99.90
3275;DHT22;1649;53.672;10.064;2022-08-19T06:41:26;19.30;99.90
3275;DHT22;1649;53.672;10.064;2022-08-19T06:43:52;19.40;99.90
3275;DHT22;1649;53.672;10.064;2022-08-19T06:46:18;19.60;99.90
3275;DHT22;1649;53.672;10.064;2022-08-19T06:48:45;19.70;99.90
3275;DHT22;1649;53.672;10.064;2022-08-19T06:51:12;19.90;99.90
3275;DHT22;1649;53.672;10.064;2022-08-19T06:53:41;20.00;99.90
3275;DHT22;1649;53.672;10.064;2022-08-19T06:56:06;20.00;99.90
3275;DHT22;1649;53.672;10.064;2022-08-19T06:58:32;20.00;99.90
3275;DHT22;1649;53.672;10.064;2022-08-19T07:01:00;20.00;99.90
3275;DHT22;1649;53.672;10.064;2022-08-19T07:03:31;19.90;99.90
3275;DHT22;1649;53.672;10.064;2022-08-19T07:06:08;19.90;99.90
3275;DHT22;1649;53.672;10.064;2022-08-19T07:08:35;19.70;99.90
3275;DHT22;1649;53.672;10.064;2022-08-19T07:11:05;19.60;99.90
3275;DHT22;1649;53.672;10.064;2022-08-19T07:13:32;19.60;99.90
3275;DHT22;1649;53.672;10.064;2022-08-19T07:16:01;19.60;99.90
3275;DHT22;1649;53.672;10.064;2022-08-19T07:18:27;19.50;99.90
3275;DHT22;1649;53.672;10.064;2022-08-19T07:21:03;19.50;99.90
3275;DHT22;1649;53.672;10.064;2022-08-19T07:23:28;19.60;99.90
3275;DHT22;1649;53.672;10.064;2022-08-19T07:25:54;19.60;99.90
3275;DHT22;1649;53.672;10.064;2022-08-19T07:28:19;19.60;99.90
3275;DHT22;1649;53.672;10.064;2022-08-19T07:30:45;19.60;99.90
3275;DHT22;1649;53.672;10.064;2022-08-19T07:33:10;19.60;99.90
3275;DHT22;1649;53.672;10.064;2022-08-19T07:35:36;19.60;99.90
3275;DHT22;1649;53.672;10.064;2022-08-19T07:38:02;19.60;99.90
3275;DHT22;1649;53.672;10.064;2022-08-19T07:40:28;19.70;99.90
3275;DHT22;1649;53.672;10.064;2022-08-19T07:42:54;19.80;99.90
3275;DHT22;1649;53.672;10.064;2022-08-19T07:45:20;19.70;99.90
3275;DHT22;1649;53.672;10.064;2022-08-19T07:47:45;19.80;99.90
3275;DHT22;1649;53.672;10.064;2022-08-19T07:50:11;19.90;99.90
3275;DHT22;1649;53.672;10.064;2022-08-19T07:52:37;20.00;99.90
3275;DHT22;1649;53.672;10.064;2022-08-19T07:55:09;20.00;99.90
3275;DHT22;1649;53.672;10.064;2022-08-19T07:57:35;20.00;99.90
3275;DHT22;1649;53.672;10.064;2022-08-19T08:00:01;20.00;99.90
3275;DHT22;1649;53.672;10.064;2022-08-19T08:02:27;20.10;99.90
3275;DHT22;1649;53.672;10.064;2022-08-19T08:04:52;20.20;99.90
3275;DHT22;1649;53.672;10.064;2022-08-19T08:07:36;20.20;99.90
3275;DHT22;1649;53.672;10.064;2022-08-19T08:10:20;20.20;99.90
3275;DHT22;1649;53.672;10.064;2022-08-19T08:12:46;20.30;99.90
3275;DHT22;1649;53.672;10.064;2022-08-19T08:15:15;20.20;99.90
3275;DHT22;1649;53.672;10.064;2022-08-19T08:17:42;20.20;99.90
3275;DHT22;1649;53.672;10.064;2022-08-19T08:20:10;20.30;99.90
3275;DHT22;1649;53.672;10.064;2022-08-19T08:22:35;20.30;99.90
3275;DHT22;1649;53.672;10.064;2022-08-19T08:25:22;20.30;99.90
3275;DHT22;1649;53.672;10.064;2022-08-19T08:27:49;20.40;99.90
3275;DHT22;1649;53.672;10.064;2022-08-19T08:30:18;20.40;99.90
3275;DHT22;1649;53.672;10.064;2022-08-19T08:32:44;20.30;99.90
3275;DHT22;1649;53.672;10.064;2022-08-19T08:35:13;20.30;99.90
3275;DHT22;1649;53.672;10.064;2022-08-19T08:37:39;20.30;99.90
3275;DHT22;1649;53.672;10.064;2022-08-19T08:40:10;20.30;99.90
3275;DHT22;1649;53.672;10.064;2022-08-19T08:42:48;20.30;99.90
3275;DHT22;1649;53.672;10.064;2022-08-19T08:45:17;20.30;99.90
3275;DHT22;1649;53.672;10.064;2022-08-19T08:47:47;20.30;99.90
3275;DHT22;1649;53.672;10.064;2022-08-19T08:50:22;20.30;99.90
3275;DHT22;1649;53.672;10.064;2022-08-19T08:52:52;20.30;99.90
3275;DHT22;1649;53.672;10.064;2022-08-19T08:55:24;20.40;99.90
3275;DHT22;1649;53.672;10.064;2022-08-19T08:57:53;20.30;99.90
3275;DHT22;1649;53.672;10.064;2022-08-19T09:00:22;20.30;99.90
3275;DHT22;1649;53.672;10.064;2022-08-19T09:02:49;20.30;99.90
3275;DHT22;1649;53.672;10.064;2022-08-19T09:05:14;20.30;99.90
3275;DHT22;1649;53.672;10.064;2022-08-19T09:08:03;20.30;99.90
3275;DHT22;1649;53.672;10.064;2022-08-19T09:10:47;20.30;99.90
3275;DHT22;1649;53.672;10.064;2022-08-19T09:13:33;20.40;99.90
3275;DHT22;1649;53.672;10.064;2022-08-19T09:16:06;20.50;99.90
3275;DHT22;1649;53.672;10.064;2022-08-19T09:18:44;20.60;99.90
3275;DHT22;1649;53.672;10.064;2022-08-19T09:21:11;20.50;99.90
3275;DHT22;1649;53.672;10.064;2022-08-19T09:23:37;20.50;99.90
3275;DHT22;1649;53.672;10.064;2022-08-19T09:26:08;20.50;99.90
3275;DHT22;1649;53.672;10.064;2022-08-19T09:28:34;20.50;99.90
3275;DHT22;1649;53.672;10.064;2022-08-19T09:30:59;20.50;99.90
3275;DHT22;1649;53.672;10.064;2022-08-19T09:33:25;20.60;99.90
3275;DHT22;1649;53.672;10.064;2022-08-19T09:36:02;20.50;99.90
3275;DHT22;1649;53.672;10.064;2022-08-19T09:38:28;20.40;99.90
3275;DHT22;1649;53.672;10.064;2022-08-19T09:40:54;20.40;99.90
3275;DHT22;1649;53.672;10.064;2022-08-19T09:43:19;20.40;99.90
3275;DHT22;1649;53.672;10.064;2022-08-19T09:45:45;20.40;99.90
3275;DHT22;1649;53.672;10.064;2022-08-19T09:48:10;20.50;99.90
3275;DHT22;1649;53.672;10.064;2022-08-19T09:50:35;20.80;99.90
3275;DHT22;1649;53.672;10.064;2022-08-19T09:53:03;20.80;99.90
3275;DHT22;1649;53.672;10.064;2022-08-19T09:55:31;20.80;99.90
3275;DHT22;1649;53.672;10.064;2022-08-19T09:57:56;20.80;99.90
3275;DHT22;1649;53.672;10.064;2022-08-19T10:00:22;20.90;99.90
3275;DHT22;1649;53.672;10.064;2022-08-19T10:02:47;21.00;99.90
3275;DHT22;1649;53.672;10.064;2022-08-19T10:05:14;21.00;99.90
3275;DHT22;1649;53.672;10.064;2022-08-19T10:07:58;21.10;99.90
3275;DHT22;1649;53.672;10.064;2022-08-19T10:10:26;21.20;99.90
3275;DHT22;1649;53.672;10.064;2022-08-19T10:12:52;21.20;99.90
3275;DHT22;1649;53.672;10.064;2022-08-19T10:15:17;21.40;99.90
3275;DHT22;1649;53.672;10.064;2022-08-19T10:17:46;21.50;99.90
3275;DHT22;1649;53.672;10.064;2022-08-19T10:20:12;21.70;99.90
3275;DHT22;1649;53.672;10.064;2022-08-19T10:22:37;21.90;99.90
3275;DHT22;1649;53.672;10.064;2022-08-19T10:25:04;22.10;99.90
3275;DHT22;1649;53.672;10.064;2022-08-19T10:27:30;22.20;99.90
3275;DHT22;1649;53.672;10.064;2022-08-19T10:29:56;22.10;99.90
3275;DHT22;1649;53.672;10.064;2022-08-19T10:32:21;22.00;99.90
3275;DHT22;1649;53.672;10.064;2022-08-19T10:34:47;21.90;99.90
3275;DHT22;1649;53.672;10.064;2022-08-19T10:37:14;21.90;99.90
3275;DHT22;1649;53.672;10.064;2022-08-19T10:39:40;21.80;99.90
3275;DHT22;1649;53.672;10.064;2022-08-19T10:42:06;21.90;99.90
3275;DHT22;1649;53.672;10.064;2022-08-19T10:44:32;22.00;99.90
3275;DHT22;1649;53.672;10.064;2022-08-19T10:47:00;22.00;99.90
3275;DHT22;1649;53.672;10.064;2022-08-19T10:49:26;22.10;99.90
3275;DHT22;1649;53.672;10.064;2022-08-19T10:51:52;22.00;99.90
3275;DHT22;1649;53.672;10.064;2022-08-19T10:54:36;22.00;99.90
3275;DHT22;1649;53.672;10.064;2022-08-19T10:57:20;21.80;99.90
3275;DHT22;1649;53.672;10.064;2022-08-19T10:59:49;21.70;99.90
3275;DHT22;1649;53.672;10.064;2022-08-19T11:02:14;21.80;99.90
3275;DHT22;1649;53.672;10.064;2022-08-19T11:04:40;21.70;99.90
3275;DHT22;1649;53.672;10.064;2022-08-19T11:07:06;21.70;99.90
3275;DHT22;1649;53.672;10.064;2022-08-19T11:09:38;21.80;99.90
3275;DHT22;1649;53.672;10.064;2022-08-19T11:12:04;21.80;99.90
3275;DHT22;1649;53.672;10.064;2022-08-19T11:14:30;21.80;99.90
3275;DHT22;1649;53.672;10.064;2022-08-19T11:16:58;21.80;99.90
3275;DHT22;1649;53.672;10.064;2022-08-19T11:19:23;21.90;99.90
3275;DHT22;1649;53.672;10.064;2022-08-19T11:21:50;22.00;99.90
3275;DHT22;1649;53.672;10.064;2022-08-19T11:24:19;22.00;99.90
3275;DHT22;1649;53.672;10.064;2022-08-19T11:26:46;22.00;99.90
3275;DHT22;1649;53.672;10.064;2022-08-19T11:29:14;21.90;99.90
3275;DHT22;1649;53.672;10.064;2022-08-19T11:31:42;22.00;99.90
3275;DHT22;1649;53.672;10.064;2022-08-19T11:34:12;22.00;99.90
3275;DHT22;1649;53.672;10.064;2022-08-19T11:36:40;22.00;99.90
3275;DHT22;1649;53.672;10.064;2022-08-19T11:39:07;22.00;99.90
3275;DHT22;1649;53.672;10.064;2022-08-19T11:41:33;22.30;99.90
3275;DHT22;1649;53.672;10.064;2022-08-19T11:43:59;22.40;99.90
3275;DHT22;1649;53.672;10.064;2022-08-19T11:46:26;22.40;99.90
3275;DHT22;1649;53.672;10.064;2022-08-19T11:48:55;22.60;99.90
3275;DHT22;1649;53.672;10.064;2022-08-19T11:51:22;22.70;99.90
3275;DHT22;1649;53.672;10.064;2022-08-19T11:53:50;22.80;99.90
3275;DHT22;1649;53.672;10.064;2022-08-19T11:56:16;22.90;99.90
3275;DHT22;1649;53.672;10.064;2022-08-19T11:58:42;23.10;99.90
3275;DHT22;1649;53.672;10.064;2022-08-19T12:01:10;23.00;99.90
3275;DHT22;1649;53.672;10.064;2022-08-19T12:03:41;23.10;99.90
3275;DHT22;1649;53.672;10.064;2022-08-19T12:06:10;22.90;99.90
3275;DHT22;1649;53.672;10.064;2022-08-19T12:08:37;23.00;99.90
3275;DHT22;1649;53.672;10.064;2022-08-19T12:11:03;23.10;99.90
3275;DHT22;1649;53.672;10.064;2022-08-19T12:13:30;23.10;99.90
3275;DHT22;1649;53.672;10.064;2022-08-19T12:15:56;23.10;99.90
3275;DHT22;1649;53.672;10.064;2022-08-19T12:18:22;23.10;99.90
3275;DHT22;1649;53.672;10.064;2022-08-19T12:20:50;23.10;99.90
3275;DHT22;1649;53.672;10.064;2022-08-19T12:23:17;23.20;99.90
3275;DHT22;1649;53.672;10.064;2022-08-19T12:25:46;23.10;99.90
3275;DHT22;1649;53.672;10.064;2022-08-19T12:28:15;23.00;99.90
3275;DHT22;1649;53.672;10.064;2022-08-19T12:30:41;23.00;99.90
3275;DHT22;1649;53.672;10.064;2022-08-19T12:33:07;23.00;99.90
3275;DHT22;1649;53.672;10.064;2022-08-19T12:35:33;22.90;99.90
3275;DHT22;1649;53.672;10.064;2022-08-19T12:37:58;22.90;99.90
3275;DHT22;1649;53.672;10.064;2022-08-19T12:40:24;22.90;99.90
3275;DHT22;1649;53.672;10.064;2022-08-19T12:42:50;22.90;99.90
3275;DHT22;1649;53.672;10.064;2022-08-19T12:45:17;22.90;99.90
3275;DHT22;1649;53.672;10.064;2022-08-19T12:47:42;23.00;99.90
3275;DHT22;1649;53.672;10.064;2022-08-19T12:50:08;23.20;99.90
3275;DHT22;1649;53.672;10.064;2022-08-19T12:52:35;23.20;99.90
3275;DHT22;1649;53.672;10.064;2022-08-19T12:55:06;23.20;99.90
3275;DHT22;1649;53.672;10.064;2022-08-19T12:57:32;23.30;99.90
3275;DHT22;1649;53.672;10.064;2022-08-19T13:00:15;23.50;99.90
3275;DHT22;1649;53.672;10.064;2022-08-19T13:02:44;23.80;99.90
3275;DHT22;1649;53.672;10.064;2022-08-19T13:05:13;23.80;99.90
3275;DHT22;1649;53.672;10.064;2022-08-19T13:07:40;24.10;99.90
3275;DHT22;1649;53.672;10.064;2022-08-19T13:10:08;24.30;99.90
3275;DHT22;1649;53.672;10.064;2022-08-19T13:12:34;24.50;99.90
3275;DHT22;1649;53.672;10.064;2022-08-19T13:14:59;24.60;99.90
3275;DHT22;1649;53.672;10.064;2022-08-19T13:17:25;24.80;99.90
3275;DHT22;1649;53.672;10.064;2022-08-19T13:19:50;24.70;99.90
3275;DHT22;1649;53.672;10.064;2022-08-19T13:22:16;24.50;99.90
3275;DHT22;1649;53.672;10.064;2022-08-19T13:24:42;24.30;99.90
3275;DHT22;1649;53.672;10.064;2022-08-19T13:27:08;24.00;99.90
3275;DHT22;1649;53.672;10.064;2022-08-19T13:29:34;23.90;99.90
3275;DHT22;1649;53.672;10.064;2022-08-19T13:32:18;24.00;99.90
3275;DHT22;1649;53.672;10.064;2022-08-19T13:35:03;24.10;99.90
3275;DHT22;1649;53.672;10.064;2022-08-19T13:37:28;24.40;99.90
3275;DHT22;1649;53.672;10.064;2022-08-19T13:40:11;24.50;99.90
3275;DHT22;1649;53.672;10.064;2022-08-19T13:42:38;24.50;99.90
3275;DHT22;1649;53.672;10.064;2022-08-19T13:45:05;24.50;99.90
3275;DHT22;1649;53.672;10.064;2022-08-19T13:47:32;24.50;99.90
3275;DHT22;1649;53.672;10.064;2022-08-19T13:50:00;24.40;99.90
3275;DHT22;1649;53.672;10.064;2022-08-19T13:52:25;24.40;99.90
3275;DHT22;1649;53.672;10.064;2022-08-19T13:54:51;24.40;99.90
3275;DHT22;1649;53.672;10.064;2022-08-19T13:57:16;24.50;99.90
3275;DHT22;1649;53.672;10.064;2022-08-19T13:59:42;24.40;99.90
3275;DHT22;1649;53.672;10.064;2022-08-19T14:02:07;24.50;99.90
3275;DHT22;1649;53.672;10.064;2022-08-19T14:04:33;24.40;99.90
3275;DHT22;1649;53.672;10.064;2022-08-19T14:06:58;24.40;99.90
3275;DHT22;1649;53.672;10.064;2022-08-19T14:09:24;24.30;99.90
3275;DHT22;1649;53.672;10.064;2022-08-19T14:11:49;24.10;99.90
3275;DHT22;1649;53.672;10.064;2022-08-19T14:14:15;24.00;99.90
3275;DHT22;1649;53.672;10.064;2022-08-19T14:16:41;23.90;99.90
3275;DHT22;1649;53.672;10.064;2022-08-19T14:19:08;23.80;99.90
3275;DHT22;1649;53.672;10.064;2022-08-19T14:21:33;23.70;99.90
3275;DHT22;1649;53.672;10.064;2022-08-19T14:23:59;23.80;99.90
3275;DHT22;1649;53.672;10.064;2022-08-19T14:26:25;23.80;99.90
3275;DHT22;1649;53.672;10.064;2022-08-19T14:28:51;23.80;99.90
3275;DHT22;1649;53.672;10.064;2022-08-19T14:31:18;23.80;99.90
3275;DHT22;1649;53.672;10.064;2022-08-19T14:33:46;23.80;99.90
3275;DHT22;1649;53.672;10.064;2022-08-19T14:36:11;23.70;99.90
3275;DHT22;1649;53.672;10.064;2022-08-19T14:38:37;23.80;99.90
3275;DHT22;1649;53.672;10.064;2022-08-19T14:41:21;23.60;99.90
3275;DHT22;1649;53.672;10.064;2022-08-19T14:43:49;23.60;99.90
3275;DHT22;1649;53.672;10.064;2022-08-19T14:46:18;23.50;99.90
3275;DHT22;1649;53.672;10.064;2022-08-19T14:48:46;23.50;99.90
3275;DHT22;1649;53.672;10.064;2022-08-19T14:51:12;23.50;99.90
3275;DHT22;1649;53.672;10.064;2022-08-19T14:53:39;23.50;99.90
3275;DHT22;1649;53.672;10.064;2022-08-19T14:56:14;23.50;99.90
3275;DHT22;1649;53.672;10.064;2022-08-19T14:58:41;23.60;99.90
3275;DHT22;1649;53.672;10.064;2022-08-19T15:01:08;23.60;99.90
3275;DHT22;1649;53.672;10.064;2022-08-19T15:03:34;23.70;99.90
3275;DHT22;1649;53.672;10.064;2022-08-19T15:06:01;23.70;99.90
3275;DHT22;1649;53.672;10.064;2022-08-19T15:08:28;23.70;99.90
3275;DHT22;1649;53.672;10.064;2022-08-19T15:10:55;23.70;99.90
3275;DHT22;1649;53.672;10.064;2022-08-19T15:13:21;23.80;99.90
3275;DHT22;1649;53.672;10.064;2022-08-19T15:15:47;23.90;99.90
3275;DHT22;1649;53.672;10.064;2022-08-19T15:18:13;24.00;99.90
3275;DHT22;1649;53.672;10.064;2022-08-19T15:20:39;24.00;99.90
3275;DHT22;1649;53.672;10.064;2022-08-19T15:23:05;24.00;99.90
3275;DHT22;1649;53.672;10.064;2022-08-19T15:25:31;24.00;99.90
3275;DHT22;1649;53.672;10.064;2022-08-19T15:27:57;24.10;99.90
3275;DHT22;1649;53.672;10.064;2022-08-19T15:30:25;24.10;99.90
3275;DHT22;1649;53.672;10.064;2022-08-19T15:32:52;24.10;99.90
3275;DHT22;1649;53.672;10.064;2022-08-19T15:35:19;24.20;99.90
3275;DHT22;1649;53.672;10.064;2022-08-19T15:37:47;24.20;99.90
3275;DHT22;1649;53.672;10.064;2022-08-19T15:40:13;24.20;99.90
3275;DHT22;1649;53.672;10.064;2022-08-19T15:42:38;24.20;99.90
3275;DHT22;1649;53.672;10.064;2022-08-19T15:45:07;24.10;99.90
3275;DHT22;1649;53.672;10.064;2022-08-19T15:47:34;24.20;99.90